createdAt,value
2022-10-05T00:01:55.131Z,5.63
2022-10-05T00:04:24.006Z,3.75
2022-10-05T00:06:58.082Z,5.60
2022-10-05T00:09:24.909Z,4.00
2022-10-05T00:11:51.957Z,3.65
2022-10-05T00:14:21.401Z,5.40
2022-10-05T00:16:49.298Z,3.60
2022-10-05T00:19:37.822Z,3.85
2022-10-05T00:22:18.568Z,4.28
2022-10-05T00:24:47.083Z,5.90
2022-10-05T00:27:48.228Z,5.15
2022-10-05T00:30:18.287Z,4.78
2022-10-05T00:32:45.999Z,7.53
2022-10-05T00:35:14.231Z,7.35
2022-10-05T00:37:42.057Z,4.35
2022-10-05T00:40:35.630Z,5.13
2022-10-05T00:43:08.658Z,6.47
2022-10-05T00:45:55.064Z,3.72
2022-10-05T00:48:41.034Z,6.57
2022-10-05T00:51:31.327Z,5.53
2022-10-05T00:54:04.246Z,4.30
2022-10-05T00:56:48.770Z,4.75
2022-10-05T00:59:28.054Z,7.38
2022-10-05T01:02:04.903Z,6.70
2022-10-05T01:04:49.307Z,3.90
2022-10-05T01:07:40.529Z,3.83
2022-10-05T01:10:33.811Z,6.35
2022-10-05T01:13:27.447Z,4.85
2022-10-05T01:16:36.147Z,5.53
2022-10-05T01:19:46.661Z,3.72
2022-10-05T01:22:32.121Z,6.88
2022-10-05T01:25:15.400Z,5.25
2022-10-05T01:28:14.815Z,4.07
2022-10-05T01:31:11.248Z,4.78
2022-10-05T01:33:52.313Z,3.95
2022-10-05T01:36:33.015Z,6.28
2022-10-05T01:39:06.893Z,4.10
2022-10-05T01:41:36.708Z,5.07
2022-10-05T01:44:12.225Z,5.28
2022-10-05T01:46:52.203Z,4.63
2022-10-05T01:49:37.762Z,5.68
2022-10-05T01:52:31.352Z,6.53
2022-10-05T01:55:25.074Z,5.50
2022-10-05T01:58:20.057Z,5.18
2022-10-05T02:01:09.928Z,5.35
2022-10-05T02:03:53.203Z,5.32
2022-10-05T02:06:26.786Z,6.60
2022-10-05T02:09:09.664Z,6.65
2022-10-05T02:11:39.231Z,4.60
2022-10-05T02:14:15.216Z,4.68
2022-10-05T02:16:44.799Z,4.55
2022-10-05T02:19:35.056Z,4.00
2022-10-05T02:22:17.892Z,5.63
2022-10-05T02:24:56.194Z,4.82
2022-10-05T02:27:29.805Z,5.97
2022-10-05T02:30:02.282Z,5.43
2022-10-05T02:32:43.046Z,5.20
2022-10-05T02:35:16.116Z,5.63
2022-10-05T02:37:58.784Z,4.47
2022-10-05T02:40:41.227Z,4.88
2022-10-05T02:43:41.831Z,5.47
2022-10-05T02:46:25.988Z,4.05
2022-10-05T02:49:17.142Z,5.32
2022-10-05T02:51:54.331Z,5.05
2022-10-05T02:54:31.153Z,6.78
2022-10-05T02:57:03.634Z,5.20
2022-10-05T02:59:38.816Z,4.30
2022-10-05T03:02:40.293Z,5.15
2022-10-05T03:05:46.118Z,3.50
2022-10-05T03:08:20.698Z,5.78
2022-10-05T03:11:25.419Z,4.60
2022-10-05T03:14:06.154Z,6.50
2022-10-05T03:16:47.475Z,3.95
2022-10-05T03:19:47.464Z,4.50
2022-10-05T03:22:19.979Z,5.18
2022-10-05T03:24:46.835Z,3.97
2022-10-05T03:27:20.651Z,3.80
2022-10-05T03:30:06.330Z,3.35
2022-10-05T03:32:50.999Z,5.75
2022-10-05T03:35:32.980Z,3.92
2022-10-05T03:38:22.497Z,4.63
2022-10-05T03:41:06.438Z,4.97
2022-10-05T03:44:10.859Z,3.92
2022-10-05T03:46:38.955Z,4.50
2022-10-05T03:49:33.743Z,3.25
2022-10-05T03:52:22.954Z,4.63
2022-10-05T03:55:26.274Z,3.40
2022-10-05T03:57:59.774Z,2.80
2022-10-05T04:00:30.136Z,3.53
2022-10-05T04:03:09.616Z,3.25
2022-10-05T04:05:48.723Z,2.92
2022-10-05T04:08:46.803Z,3.60
2022-10-05T04:11:55.549Z,3.40
2022-10-05T04:14:28.063Z,2.80
2022-10-05T04:16:59.876Z,2.72
2022-10-05T04:19:39.359Z,2.70
2022-10-05T04:22:39.222Z,4.28
2022-10-05T04:25:22.738Z,2.83
2022-10-05T04:28:32.035Z,2.40
2022-10-05T04:31:02.737Z,2.95
2022-10-05T04:33:31.533Z,2.67
2022-10-05T04:36:19.186Z,2.50
2022-10-05T04:38:57.693Z,2.85
2022-10-05T04:41:40.441Z,2.50
2022-10-05T04:44:41.301Z,3.95
2022-10-05T04:47:39.544Z,4.93
2022-10-05T04:50:12.870Z,4.10
2022-10-05T04:53:16.549Z,2.75
2022-10-05T04:56:03.524Z,3.78
2022-10-05T04:58:59.484Z,5.40
2022-10-05T05:02:13.816Z,7.05
2022-10-05T05:05:15.285Z,3.15
2022-10-05T05:08:00.650Z,3.65
2022-10-05T05:11:04.742Z,3.70
2022-10-05T05:13:58.702Z,4.22
2022-10-05T05:16:31.001Z,3.63
2022-10-05T05:19:23.504Z,3.72
2022-10-05T05:22:30.015Z,3.33
2022-10-05T05:24:56.788Z,3.10
2022-10-05T05:27:38.678Z,2.28
2022-10-05T05:30:33.931Z,4.78
2022-10-05T05:33:20.495Z,3.88
2022-10-05T05:35:58.881Z,2.85
2022-10-05T05:38:37.777Z,3.15
2022-10-05T05:41:10.761Z,2.40
2022-10-05T05:43:58.924Z,4.53
2022-10-05T05:47:02.496Z,3.17
2022-10-05T05:49:51.764Z,2.55
2022-10-05T05:52:26.064Z,2.47
2022-10-05T05:55:08.411Z,2.65
2022-10-05T05:57:43.184Z,3.30
2022-10-05T06:00:14.084Z,5.80
2022-10-05T06:03:13.320Z,4.57
2022-10-05T06:05:47.567Z,2.75
2022-10-05T06:08:36.052Z,2.03
2022-10-05T06:11:30.569Z,2.28
2022-10-05T06:14:13.760Z,2.53
2022-10-05T06:16:48.285Z,3.20
2022-10-05T06:19:21.298Z,3.03
2022-10-05T06:21:54.537Z,2.30
2022-10-05T06:24:40.602Z,2.15
2022-10-05T06:27:17.747Z,3.40
2022-10-05T06:29:48.391Z,2.83
2022-10-05T06:32:32.341Z,1.80
2022-10-05T06:35:41.355Z,3.20
2022-10-05T06:38:23.507Z,1.50
2022-10-05T06:41:15.560Z,4.35
2022-10-05T06:43:46.408Z,3.53
2022-10-05T06:46:32.126Z,4.20
2022-10-05T06:49:56.121Z,2.33
2022-10-05T06:53:29.310Z,1.88
2022-10-05T06:56:11.516Z,2.42
2022-10-05T06:58:45.690Z,3.03
2022-10-05T07:01:36.403Z,2.17
2022-10-05T07:04:36.643Z,4.00
2022-10-05T07:07:15.065Z,2.67
2022-10-05T07:10:22.399Z,2.17
2022-10-05T07:13:27.189Z,3.58
2022-10-05T07:16:13.551Z,1.90
2022-10-05T07:19:13.799Z,2.17
2022-10-05T07:22:00.181Z,1.77
2022-10-05T07:24:38.143Z,3.17
2022-10-05T07:27:17.998Z,2.03
2022-10-05T07:30:02.924Z,3.20
2022-10-05T07:32:59.746Z,1.75
2022-10-05T07:35:59.083Z,2.95
2022-10-05T07:38:43.077Z,2.72
2022-10-05T07:41:13.553Z,1.70
2022-10-05T07:44:04.422Z,2.53
2022-10-05T07:46:53.416Z,2.10
2022-10-05T07:49:43.512Z,2.45
2022-10-05T07:52:24.776Z,2.35
2022-10-05T07:54:58.607Z,1.98
2022-10-05T07:57:36.945Z,3.38
2022-10-05T08:00:06.003Z,2.25
2022-10-05T08:02:54.424Z,4.97
2022-10-05T08:05:29.672Z,2.25
2022-10-05T08:08:27.288Z,2.33
2022-10-05T08:11:46.761Z,1.90
2022-10-05T08:14:22.280Z,1.58
2022-10-05T08:16:55.745Z,1.95
2022-10-05T08:19:31.935Z,1.90
2022-10-05T08:22:04.640Z,2.10
2022-10-05T08:24:51.793Z,1.80
2022-10-05T08:27:50.019Z,1.45
2022-10-05T08:30:17.368Z,1.58
2022-10-05T08:32:55.347Z,2.78
2022-10-05T08:35:35.730Z,5.55
2022-10-05T08:38:10.430Z,2.17
2022-10-05T08:40:43.108Z,1.65
2022-10-05T08:43:28.042Z,2.03
2022-10-05T08:46:28.294Z,2.97
2022-10-05T08:49:16.780Z,2.17
2022-10-05T08:51:56.723Z,1.60
2022-10-05T08:54:43.256Z,1.65
2022-10-05T08:57:19.131Z,1.70
2022-10-05T09:00:05.086Z,1.90
2022-10-05T09:03:09.531Z,2.53
2022-10-05T09:05:36.458Z,1.85
2022-10-05T09:08:33.900Z,2.20
2022-10-05T09:11:41.636Z,1.70
2022-10-05T09:14:39.015Z,1.60
2022-10-05T09:17:20.434Z,2.38
2022-10-05T09:20:18.880Z,1.98
2022-10-05T09:22:58.079Z,1.48
2022-10-05T09:25:58.754Z,2.35
2022-10-05T09:28:42.668Z,1.45
2022-10-05T09:31:15.540Z,1.33
2022-10-05T09:34:23.863Z,1.35
2022-10-05T09:37:38.683Z,4.10
2022-10-05T09:40:23.679Z,1.15
2022-10-05T09:43:30.853Z,1.25
2022-10-05T09:46:05.007Z,2.03
2022-10-05T09:48:47.823Z,1.50
2022-10-05T09:51:17.256Z,1.88
2022-10-05T09:54:05.025Z,1.40
2022-10-05T09:57:04.192Z,1.38
2022-10-05T10:00:21.746Z,2.15
2022-10-05T10:03:19.130Z,3.20
2022-10-05T10:05:48.605Z,1.42
2022-10-05T10:08:35.668Z,1.40
2022-10-05T10:11:16.947Z,1.45
2022-10-05T10:14:10.624Z,1.60
2022-10-05T10:16:46.126Z,1.77
2022-10-05T10:19:18.831Z,1.30
2022-10-05T10:22:12.918Z,1.80
2022-10-05T10:25:20.365Z,1.50
2022-10-05T10:28:16.029Z,1.67
2022-10-05T10:30:55.887Z,4.72
2022-10-05T10:33:38.679Z,1.20
2022-10-05T10:36:18.363Z,2.35
2022-10-05T10:39:22.637Z,4.85
2022-10-05T10:42:11.123Z,1.48
2022-10-05T10:45:25.835Z,1.58
2022-10-05T10:48:18.279Z,1.52
2022-10-05T10:51:12.387Z,1.30
2022-10-05T10:54:08.936Z,2.10
2022-10-05T10:56:44.475Z,1.88
2022-10-05T10:59:41.673Z,3.33
2022-10-05T11:02:46.491Z,1.40
2022-10-05T11:05:37.066Z,1.30
2022-10-05T11:08:09.339Z,1.75
2022-10-05T11:11:23.560Z,2.33
2022-10-05T11:14:05.942Z,2.92
2022-10-05T11:17:05.504Z,1.50
2022-10-05T11:20:09.248Z,1.40
2022-10-05T11:22:54.473Z,2.35
2022-10-05T11:25:27.748Z,1.48
2022-10-05T11:28:25.564Z,1.63
2022-10-05T11:31:01.775Z,2.28
2022-10-05T11:33:42.902Z,1.27
2022-10-05T11:36:34.323Z,3.88
2022-10-05T11:39:30.675Z,1.35
2022-10-05T11:42:06.482Z,1.55
2022-10-05T11:44:51.881Z,2.22
2022-10-05T11:47:27.942Z,1.95
2022-10-05T11:50:05.498Z,2.90
2022-10-05T11:53:26.148Z,2.15
2022-10-05T11:56:21.924Z,1.60
2022-10-05T11:59:23.356Z,1.17
2022-10-05T12:01:56.163Z,1.52
2022-10-05T12:04:57.390Z,1.73
2022-10-05T12:07:36.012Z,2.00
2022-10-05T12:10:31.217Z,1.73
2022-10-05T12:13:37.531Z,1.83
2022-10-05T12:16:23.005Z,1.70
2022-10-05T12:19:06.012Z,2.03
2022-10-05T12:21:45.067Z,2.30
2022-10-05T12:24:35.660Z,2.30
2022-10-05T12:27:05.628Z,1.73
2022-10-05T12:30:05.740Z,1.80
2022-10-05T12:33:01.891Z,2.55
2022-10-05T12:35:48.431Z,4.22
2022-10-05T12:38:28.673Z,2.92
2022-10-05T12:41:04.281Z,1.60
2022-10-05T12:43:46.136Z,1.23
2022-10-05T12:46:33.175Z,1.55
2022-10-05T12:49:12.058Z,1.45
2022-10-05T12:52:02.440Z,3.30
2022-10-05T12:54:56.079Z,2.88
2022-10-05T12:58:13.934Z,2.20
2022-10-05T13:00:51.936Z,2.10
2022-10-05T13:03:25.963Z,1.45
2022-10-05T13:06:15.744Z,1.10
2022-10-05T13:09:27.777Z,2.05
2022-10-05T13:12:03.789Z,2.17
2022-10-05T13:14:56.281Z,2.70
2022-10-05T13:17:35.054Z,1.65
2022-10-05T13:20:16.103Z,2.47
2022-10-05T13:22:48.464Z,2.33
2022-10-05T13:25:25.872Z,2.85
2022-10-05T13:28:02.439Z,1.70
2022-10-05T13:30:29.895Z,2.17
2022-10-05T13:33:25.101Z,4.63
2022-10-05T13:36:11.631Z,2.88
2022-10-05T13:39:03.746Z,2.28
2022-10-05T13:41:30.643Z,1.52
2022-10-05T13:44:16.360Z,2.70
2022-10-05T13:46:56.663Z,2.08
2022-10-05T13:49:48.251Z,1.67
2022-10-05T13:52:28.100Z,3.08
2022-10-05T13:55:15.784Z,1.88
2022-10-05T13:57:53.120Z,2.00
2022-10-05T14:00:24.146Z,2.20
2022-10-05T14:02:56.661Z,1.60
2022-10-05T14:05:24.690Z,1.63
2022-10-05T14:07:53.392Z,2.75
2022-10-05T14:10:40.235Z,0.90
2022-10-05T14:13:19.433Z,2.45
2022-10-05T14:16:04.832Z,4.00
2022-10-05T14:18:36.348Z,1.20
2022-10-05T14:21:07.679Z,1.50
2022-10-05T14:23:35.495Z,1.20
2022-10-05T14:26:04.452Z,1.45
2022-10-05T14:28:39.107Z,2.55
2022-10-05T14:31:26.856Z,2.38
2022-10-05T14:33:53.800Z,1.27
2022-10-05T14:36:40.208Z,1.52
2022-10-05T14:39:12.957Z,1.30
2022-10-05T14:41:48.919Z,1.90
2022-10-05T14:44:16.210Z,1.42
2022-10-05T14:47:11.859Z,1.35
2022-10-05T14:50:13.969Z,1.40
2022-10-05T14:52:43.476Z,1.38
2022-10-05T14:55:41.464Z,2.30
2022-10-05T14:58:27.436Z,2.60
2022-10-05T15:01:16.312Z,2.40
2022-10-05T15:04:02.513Z,1.50
2022-10-05T15:06:39.772Z,3.10
2022-10-05T15:09:29.729Z,2.88
2022-10-05T15:12:01.041Z,3.20
2022-10-05T15:14:32.172Z,1.30
2022-10-05T15:17:03.394Z,1.50
2022-10-05T15:19:40.785Z,3.38
2022-10-05T15:22:31.913Z,3.00
2022-10-05T15:25:22.238Z,2.33
2022-10-05T15:28:10.821Z,2.55
2022-10-05T15:30:42.982Z,2.63
2022-10-05T15:33:15.171Z,3.38
2022-10-05T15:36:09.795Z,1.40
2022-10-05T15:38:42.968Z,2.28
2022-10-05T15:41:12.866Z,2.50
2022-10-05T15:44:10.257Z,1.25
2022-10-05T15:46:58.525Z,1.83
2022-10-05T15:49:48.133Z,1.50
2022-10-05T15:52:31.899Z,2.08
2022-10-05T15:55:22.910Z,1.63
2022-10-05T15:57:55.851Z,4.20
2022-10-05T16:00:25.456Z,1.98
2022-10-05T16:03:07.120Z,3.63
2022-10-05T16:06:04.900Z,2.90
2022-10-05T16:08:55.798Z,1.67
2022-10-05T16:11:50.112Z,1.40
2022-10-05T16:14:32.372Z,2.13
2022-10-05T16:17:33.722Z,1.60
2022-10-05T16:20:41.165Z,2.42
2022-10-05T16:23:28.083Z,2.33
2022-10-05T16:26:25.608Z,1.83
2022-10-05T16:29:11.767Z,2.20
2022-10-05T16:32:00.333Z,1.67
2022-10-05T16:34:45.484Z,3.47
2022-10-05T16:37:42.999Z,2.08
2022-10-05T16:40:22.123Z,1.92
2022-10-05T16:43:04.160Z,1.85
2022-10-05T16:45:45.124Z,2.67
2022-10-05T16:48:28.838Z,1.92
2022-10-05T16:51:07.602Z,1.50
2022-10-05T16:53:40.300Z,2.78
2022-10-05T16:56:13.522Z,3.42
2022-10-05T16:58:43.454Z,2.08
2022-10-05T17:01:10.355Z,1.95
2022-10-05T17:04:03.589Z,2.00
2022-10-05T17:06:45.899Z,2.15
2022-10-05T17:09:41.900Z,1.90
2022-10-05T17:12:32.782Z,2.53
2022-10-05T17:15:29.904Z,2.00
2022-10-05T17:18:06.923Z,1.52
2022-10-05T17:20:47.179Z,1.63
2022-10-05T17:23:35.097Z,3.75
2022-10-05T17:26:07.295Z,4.82
2022-10-05T17:28:57.438Z,4.30
2022-10-05T17:31:28.079Z,1.88
2022-10-05T17:34:01.039Z,2.45
2022-10-05T17:36:44.027Z,2.45
2022-10-05T17:39:20.896Z,1.88
2022-10-05T17:41:48.786Z,1.77
2022-10-05T17:44:19.327Z,2.42
2022-10-05T17:46:57.040Z,1.70
2022-10-05T17:49:46.973Z,1.85
2022-10-05T17:52:45.643Z,5.57
2022-10-05T17:55:26.675Z,3.90
2022-10-05T17:57:58.623Z,1.88
2022-10-05T18:00:43.369Z,3.05
2022-10-05T18:03:43.820Z,2.92
2022-10-05T18:06:25.951Z,2.40
2022-10-05T18:09:20.321Z,1.77
2022-10-05T18:12:02.861Z,1.88
2022-10-05T18:15:12.905Z,7.45
2022-10-05T18:17:51.405Z,2.13
2022-10-05T18:20:23.997Z,2.20
2022-10-05T18:22:53.473Z,4.45
2022-10-05T18:25:34.082Z,6.57
2022-10-05T18:28:12.791Z,4.25
2022-10-05T18:30:54.581Z,8.10
2022-10-05T18:33:45.616Z,2.17
2022-10-05T18:36:18.208Z,2.05
2022-10-05T18:39:03.316Z,2.70
2022-10-05T18:41:50.839Z,2.95
2022-10-05T18:44:40.482Z,4.82
2022-10-05T18:47:42.883Z,4.07
2022-10-05T18:50:21.522Z,4.93
2022-10-05T18:53:13.358Z,2.72
2022-10-05T18:55:58.947Z,3.85
2022-10-05T18:58:51.057Z,3.65
2022-10-05T19:01:40.280Z,4.80
2022-10-05T19:04:37.637Z,4.40
2022-10-05T19:08:02.747Z,2.53
2022-10-05T19:10:50.824Z,3.63
2022-10-05T19:13:26.549Z,4.32
2022-10-05T19:16:14.467Z,4.88
2022-10-05T19:19:00.120Z,2.67
2022-10-05T19:21:30.312Z,2.92
2022-10-05T19:24:11.843Z,3.42
2022-10-05T19:26:49.863Z,4.93
2022-10-05T19:29:42.739Z,2.80
2022-10-05T19:32:49.431Z,2.47
2022-10-05T19:35:43.714Z,3.88
2022-10-05T19:38:42.108Z,2.42
2022-10-05T19:41:19.380Z,2.17
2022-10-05T19:44:13.434Z,3.13
2022-10-05T19:47:02.652Z,3.13
2022-10-05T19:49:37.835Z,2.22
2022-10-05T19:52:11.882Z,2.30
2022-10-05T19:54:39.132Z,2.70
2022-10-05T19:57:17.868Z,2.25
2022-10-05T19:59:46.898Z,2.75
2022-10-05T20:02:17.379Z,3.03
2022-10-05T20:04:49.646Z,3.88
2022-10-05T20:07:23.324Z,3.60
2022-10-05T20:10:14.423Z,3.22
2022-10-05T20:12:52.226Z,3.33
2022-10-05T20:15:43.502Z,2.25
2022-10-05T20:18:53.989Z,3.33
2022-10-05T20:21:46.368Z,2.17
2022-10-05T20:24:19.682Z,3.05
2022-10-05T20:27:16.500Z,2.90
2022-10-05T20:29:44.982Z,2.63
2022-10-05T20:32:17.950Z,2.28
2022-10-05T20:34:47.347Z,2.35
2022-10-05T20:37:16.651Z,3.83
2022-10-05T20:39:44.066Z,1.98
2022-10-05T20:42:11.827Z,3.60
2022-10-05T20:44:39.639Z,2.92
2022-10-05T20:47:09.727Z,2.58
2022-10-05T20:49:38.132Z,3.53
2022-10-05T20:52:06.348Z,1.92
2022-10-05T20:54:33.352Z,4.10
2022-10-05T20:57:00.944Z,4.25
2022-10-05T20:59:28.851Z,3.42
2022-10-05T21:01:55.783Z,5.50
2022-10-05T21:04:25.637Z,5.15
2022-10-05T21:06:53.073Z,5.25
2022-10-05T21:09:21.563Z,3.42
2022-10-05T21:11:50.249Z,5.45
2022-10-05T21:14:17.316Z,3.33
2022-10-05T21:16:45.875Z,3.50
2022-10-05T21:19:14.516Z,5.18
2022-10-05T21:21:43.633Z,3.30
2022-10-05T21:24:13.729Z,5.78
2022-10-05T21:26:41.778Z,4.25
2022-10-05T21:29:12.467Z,4.68
2022-10-05T21:31:40.491Z,7.97
2022-10-05T21:34:08.401Z,5.55
2022-10-05T21:36:35.523Z,10.35
2022-10-05T21:39:02.428Z,4.20
2022-10-05T21:41:29.282Z,8.10
2022-10-05T21:43:56.305Z,13.75
2022-10-05T21:46:27.489Z,1.50
2022-10-05T21:48:56.038Z,4.80
2022-10-05T21:51:25.112Z,4.97
2022-10-05T21:54:06.885Z,12.75
2022-10-05T21:56:37.481Z,12.15
2022-10-05T21:59:07.954Z,13.30
2022-10-05T22:01:36.026Z,9.60
2022-10-05T22:04:04.379Z,10.05
2022-10-05T22:06:31.544Z,11.52
2022-10-05T22:08:59.593Z,6.40
2022-10-05T22:11:27.977Z,9.57
2022-10-05T22:14:01.996Z,8.75
2022-10-05T22:16:32.179Z,7.63
2022-10-05T22:19:02.378Z,8.45
2022-10-05T22:21:30.224Z,7.07
2022-10-05T22:23:57.383Z,9.57
2022-10-05T22:26:24.748Z,10.13
2022-10-05T22:28:55.484Z,8.38
2022-10-05T22:31:22.579Z,6.53
2022-10-05T22:33:49.599Z,5.68
2022-10-05T22:36:16.705Z,7.32
2022-10-05T22:38:44.811Z,7.95
2022-10-05T22:41:13.265Z,10.45
2022-10-05T22:43:40.308Z,7.80
2022-10-05T22:46:11.425Z,6.43
2022-10-05T22:48:39.212Z,7.78
2022-10-05T22:51:06.560Z,6.50
2022-10-05T22:53:33.568Z,6.80
2022-10-05T22:56:09.074Z,5.28
2022-10-05T22:58:36.621Z,7.38
2022-10-05T23:01:06.069Z,6.20
2022-10-05T23:03:33.255Z,6.63
2022-10-05T23:06:03.620Z,7.40
2022-10-05T23:08:32.342Z,7.65
2022-10-05T23:11:04.642Z,5.75
2022-10-05T23:13:32.940Z,4.88
2022-10-05T23:16:09.931Z,6.93
2022-10-05T23:18:37.843Z,8.10
2022-10-05T23:21:08.631Z,6.68
2022-10-05T23:23:37.445Z,6.05
2022-10-05T23:26:05.178Z,10.98
2022-10-05T23:28:32.556Z,7.88
2022-10-05T23:31:01.306Z,4.45
2022-10-05T23:33:29.048Z,8.18
2022-10-05T23:36:04.470Z,6.78
2022-10-05T23:38:31.738Z,7.95
2022-10-05T23:40:59.759Z,5.72
2022-10-05T23:43:27.602Z,5.13
2022-10-05T23:45:55.433Z,8.23
2022-10-05T23:48:22.779Z,7.85
2022-10-05T23:50:50.282Z,6.25
2022-10-05T23:53:18.317Z,7.47
2022-10-05T23:55:45.731Z,10.50
2022-10-05T23:58:12.694Z,5.45
